Time;durP1;ratioP1;P1;durP2;ratioP2;P2;SDS_P1;SDS_P2;PMS_P1;PMS_P2;Temp;Humidity;BMP_temperature;BMP_pressure;BME280_temperature;BME280_humidity;BME280_pressure;Samples;Min_cycle;Max_cycle;Signal;HPM_P1;HPM_P2
2021/09/24 00:02:12;;;;;;;;;;;;;;;13.13;66.64;100050.18;1385648;89;20280;-90
2021/09/24 00:04:39;;;;;;;;;;;;;;;13.13;66.45;100054.16;1386346;86;20984;-92
2021/09/24 00:07:07;;;;;;;;;;;;;;;13.13;66.33;100072.77;1389169;89;20214;-91
2021/09/24 00:09:34;;;;;;;;;;;;;;;13.10;66.53;100068.11;1389710;89;20244;-90
2021/09/24 00:12:01;;;;;;;;;;;;;;;13.15;66.37;100068.08;1389103;89;20258;-90
2021/09/24 00:14:28;;;;;;;;;;;;;;;13.14;66.26;100057.96;1388930;88;20780;-90
2021/09/24 00:16:55;;;;;;;;;;;;;;;13.17;66.18;100060.77;1389279;89;20244;-91
2021/09/24 00:19:22;;;;;;;;;;;;;;;13.19;65.83;100060.94;1389423;88;20824;-90
2021/09/24 00:21:49;;;;;;;;;;;;;;;13.20;65.81;100050.63;1389020;89;20236;-90
2021/09/24 00:24:15;;;;;;;;;;;;;;;13.19;65.96;100054.29;1389178;88;20236;-89
2021/09/24 00:26:42;;;;;;;;;;;;;;;13.18;65.95;100039.87;1389523;88;20242;-89
2021/09/24 00:29:09;;;;;;;;;;;;;;;13.17;65.80;100029.71;1389533;88;20288;-90
2021/09/24 00:31:36;;;;;;;;;;;;;;;13.16;65.81;100028.06;1389469;89;20318;-89
2021/09/24 00:34:03;;;;;;;;;;;;;;;13.17;65.83;100028.38;1389027;88;20236;-91
2021/09/24 00:36:30;;;;;;;;;;;;;;;13.17;65.85;100012.95;1389181;89;20235;-89
2021/09/24 00:38:56;;;;;;;;;;;;;;;13.13;66.01;100011.66;1389231;89;20244;-90
2021/09/24 00:41:23;;;;;;;;;;;;;;;13.16;65.72;100021.42;1388985;88;20229;-89
2021/09/24 00:43:50;;;;;;;;;;;;;;;13.15;65.82;100017.59;1389258;88;20236;-90
2021/09/24 00:46:17;;;;;;;;;;;;;;;13.14;65.76;100011.97;1389379;89;20296;-87
2021/09/24 00:48:44;;;;;;;;;;;;;;;13.17;65.56;100008.96;1389503;89;20315;-88
2021/09/24 00:51:11;;;;;;;;;;;;;;;13.15;65.65;100015.80;1388984;89;20250;-87
2021/09/24 00:53:38;;;;;;;;;;;;;;;13.16;65.65;100014.78;1388858;89;20288;-88
2021/09/24 00:56:07;;;;;;;;;;;;;;;13.15;65.67;100009.63;1389768;89;20214;-88
2021/09/24 00:58:34;;;;;;;;;;;;;;;13.19;65.47;100008.30;1389424;88;20236;-89
2021/09/24 01:01:01;;;;;;;;;;;;;;;13.20;65.42;100008.10;1389837;89;20228;-87
2021/09/24 01:03:28;;;;;;;;;;;;;;;13.18;65.48;100005.32;1389525;88;20281;-87
2021/09/24 01:05:55;;;;;;;;;;;;;;;13.20;65.35;100001.46;1389648;88;20281;-87
2021/09/24 01:08:22;;;;;;;;;;;;;;;13.22;65.25;99992.00;1385849;88;20809;-88
2021/09/24 01:10:49;;;;;;;;;;;;;;;13.20;65.41;99970.08;1385222;89;20280;-88
2021/09/24 01:13:16;;;;;;;;;;;;;;;13.22;65.23;99972.07;1385520;88;20355;-87
2021/09/24 01:15:43;;;;;;;;;;;;;;;13.15;65.49;99971.95;1385188;89;20344;-88
2021/09/24 01:18:10;;;;;;;;;;;;;;;13.15;65.46;99962.66;1385403;88;20354;-88
2021/09/24 01:20:37;;;;;;;;;;;;;;;13.15;65.49;99948.52;1385525;89;20258;-88
2021/09/24 01:23:05;;;;;;;;;;;;;;;13.16;65.45;99954.17;1385296;88;20911;-87
2021/09/24 01:25:32;;;;;;;;;;;;;;;13.16;65.35;99943.55;1385245;88;20418;-88
2021/09/24 01:27:59;;;;;;;;;;;;;;;13.05;65.83;99939.45;1385207;89;20393;-89
2021/09/24 01:30:26;;;;;;;;;;;;;;;13.07;65.69;99927.66;1385332;89;20384;-89
2021/09/24 01:32:53;;;;;;;;;;;;;;;13.05;65.83;99934.97;1385714;89;20259;-91
2021/09/24 01:35:20;;;;;;;;;;;;;;;13.06;65.59;99943.75;1385114;89;20310;-91
2021/09/24 01:37:47;;;;;;;;;;;;;;;13.05;65.68;99940.28;1385256;88;20765;-90
2021/09/24 01:40:16;;;;;;;;;;;;;;;13.06;65.64;99939.77;1385122;88;20281;-89
2021/09/24 01:42:44;;;;;;;;;;;;;;;13.06;65.66;99928.67;1385443;88;20251;-89
2021/09/24 01:45:12;;;;;;;;;;;;;;;13.02;65.76;99930.00;1400102;87;20385;-90
2021/09/24 01:47:39;;;;;;;;;;;;;;;13.03;65.71;99940.13;1387090;88;20304;-89
2021/09/24 01:50:08;;;;;;;;;;;;;;;13.01;65.77;99935.00;1386978;89;20757;-89
2021/09/24 01:52:35;;;;;;;;;;;;;;;13.01;65.73;99934.18;1385414;88;20350;-88
2021/09/24 01:55:03;;;;;;;;;;;;;;;12.94;66.03;99922.59;1385273;89;20817;-89
2021/09/24 01:57:30;;;;;;;;;;;;;;;12.92;66.13;99910.83;1385095;89;20258;-89
2021/09/24 01:59:57;;;;;;;;;;;;;;;12.86;66.16;99904.38;1385426;89;20296;-89
2021/09/24 02:02:24;;;;;;;;;;;;;;;12.88;66.05;99900.21;1385412;88;20341;-89
2021/09/24 02:04:51;;;;;;;;;;;;;;;12.85;66.21;99900.56;1385098;88;20311;-88
2021/09/24 02:07:18;;;;;;;;;;;;;;;12.81;66.28;99882.02;1379551;88;20274;-88
2021/09/24 02:09:45;;;;;;;;;;;;;;;12.81;66.18;99887.32;1376843;89;20274;-89
2021/09/24 02:12:11;;;;;;;;;;;;;;;12.79;66.29;99889.31;1377074;90;20392;-90
2021/09/24 02:14:38;;;;;;;;;;;;;;;12.77;66.28;99896.11;1376964;90;20252;-89
2021/09/24 02:17:05;;;;;;;;;;;;;;;12.75;66.31;99907.44;1376833;90;20772;-90
2021/09/24 02:19:32;;;;;;;;;;;;;;;12.77;66.14;99887.33;1377189;89;20409;-89
2021/09/24 02:22:00;;;;;;;;;;;;;;;12.79;66.15;99895.95;1376874;89;20274;-89
2021/09/24 02:24:27;;;;;;;;;;;;;;;12.78;66.09;99892.98;1376947;90;20867;-88
2021/09/24 02:26:54;;;;;;;;;;;;;;;12.74;66.17;99887.67;1376738;90;20325;-89
2021/09/24 02:29:21;;;;;;;;;;;;;;;12.74;66.14;99896.97;1377050;90;20282;-88
2021/09/24 02:31:48;;;;;;;;;;;;;;;12.73;66.16;99893.49;1376962;89;20825;-88
2021/09/24 02:34:16;;;;;;;;;;;;;;;12.74;66.14;99896.97;1377097;88;20327;-89
2021/09/24 02:36:43;;;;;;;;;;;;;;;12.73;66.08;99894.00;1377119;89;20282;-90
2021/09/24 02:39:10;;;;;;;;;;;;;;;12.75;65.89;99893.34;1376901;90;20904;-87
2021/09/24 02:41:37;;;;;;;;;;;;;;;12.72;66.12;99888.38;1377035;89;20318;-88
2021/09/24 02:44:04;;;;;;;;;;;;;;;12.74;65.78;99889.01;1396958;88;20274;-88
2021/09/24 02:46:31;;;;;;;;;;;;;;;12.74;65.81;99889.01;1376847;90;20334;-89
2021/09/24 02:48:58;;;;;;;;;;;;;;;12.77;65.72;99897.44;1376970;90;20274;-89
2021/09/24 02:51:25;;;;;;;;;;;;;;;12.78;65.69;99890.33;1376824;90;20796;-90
2021/09/24 02:53:52;;;;;;;;;;;;;;;12.76;65.65;99866.59;1377131;89;20326;-88
2021/09/24 02:56:19;;;;;;;;;;;;;;;12.77;65.29;99852.30;1377144;90;20252;-89
2021/09/24 02:58:46;;;;;;;;;;;;;;;12.77;65.18;99857.61;1376906;89;20260;-89
2021/09/24 03:01:13;;;;;;;;;;;;;;;12.80;65.21;99862.60;1377537;89;20356;-88
2021/09/24 03:03:40;;;;;;;;;;;;;;;12.83;64.99;99865.38;1377578;89;20274;-90
2021/09/24 03:06:07;;;;;;;;;;;;;;;12.82;65.08;99865.89;1398119;88;20267;-88
2021/09/24 03:08:34;;;;;;;;;;;;;;;12.83;65.00;99857.41;1392049;88;20336;-88
2021/09/24 03:11:01;;;;;;;;;;;;;;;12.82;64.75;99859.25;1392312;88;20764;-88
2021/09/24 03:13:28;;;;;;;;;;;;;;;12.85;64.66;99861.55;1392446;88;20243;-88
2021/09/24 03:15:55;;;;;;;;;;;;;;;12.87;64.50;99865.38;1392065;88;20844;-91
2021/09/24 03:18:22;;;;;;;;;;;;;;;12.85;64.53;99850.92;1392334;88;20236;-91
2021/09/24 03:20:51;;;;;;;;;;;;;;;12.87;64.33;99845.45;1392445;88;20280;-89
2021/09/24 03:23:19;;;;;;;;;;;;;;;12.90;64.14;99835.80;1392818;88;20296;-91
2021/09/24 03:25:48;;;;;;;;;;;;;;;12.88;64.02;99837.29;1392810;88;20228;-92
2021/09/24 03:28:15;;;;;;;;;;;;;;;12.88;63.82;99849.24;1392706;87;20342;-91
2021/09/24 03:30:42;;;;;;;;;;;;;;;12.89;63.77;99852.75;1414042;87;20258;-91
2021/09/24 03:33:09;;;;;;;;;;;;;;;12.91;63.69;99854.70;1392148;88;20243;-89
2021/09/24 03:35:36;;;;;;;;;;;;;;;12.90;63.47;99849.08;1393525;88;20243;-92
2021/09/24 03:38:03;;;;;;;;;;;;;;;12.91;63.34;99841.42;1395077;88;20244;-92
2021/09/24 03:40:30;;;;;;;;;;;;;;;12.91;63.40;99854.70;1394038;88;20328;-95
2021/09/24 03:42:58;;;;;;;;;;;;;;;12.93;63.44;99840.76;1392138;88;20712;-92
2021/09/24 03:45:27;;;;;;;;;;;;;;;12.93;63.26;99841.27;1392332;88;20362;-90
2021/09/24 03:47:54;;;;;;;;;;;;;;;12.90;63.13;99847.75;1392714;88;20363;-91
2021/09/24 03:50:23;;;;;;;;;;;;;;;12.92;62.97;99833.80;1392745;88;20392;-93
2021/09/24 03:52:52;;;;;;;;;;;;;;;12.92;63.05;99828.97;1392627;88;20377;-92
2021/09/24 03:55:19;;;;;;;;;;;;;;;12.89;62.92;99834.16;1392584;88;20244;-91
2021/09/24 03:57:46;;;;;;;;;;;;;;;12.86;62.99;99818.58;1392736;88;20251;-90
2021/09/24 04:00:15;;;;;;;;;;;;;;;12.84;62.93;99837.84;1392947;88;20235;-91
2021/09/24 04:02:42;;;;;;;;;;;;;;;12.86;62.94;99825.22;1392438;88;20325;-90
2021/09/24 04:05:09;;;;;;;;;;;;;;;12.84;62.95;99812.61;1392597;88;20324;-92
2021/09/24 04:07:36;;;;;;;;;;;;;;;12.81;63.07;99833.70;1392954;88;20235;-90
2021/09/24 04:10:04;;;;;;;;;;;;;;;12.80;63.06;99823.24;1391917;88;20273;-91
2021/09/24 04:12:31;;;;;;;;;;;;;;;12.78;63.17;99825.27;1391961;88;20243;-90
2021/09/24 04:14:58;;;;;;;;;;;;;;;12.75;63.12;99832.27;1391487;89;20274;-91
2021/09/24 04:17:25;;;;;;;;;;;;;;;12.77;63.13;99835.55;1392424;88;20243;-89
2021/09/24 04:19:52;;;;;;;;;;;;;;;12.74;63.12;99825.28;1388212;88;20280;-89
2021/09/24 04:22:19;;;;;;;;;;;;;;;12.70;63.29;99823.99;1394527;89;20258;-93
2021/09/24 04:24:46;;;;;;;;;;;;;;;12.67;63.28;99827.83;1397606;88;20764;-90
2021/09/24 04:27:13;;;;;;;;;;;;;;;12.68;63.36;99822.83;1397778;88;20302;-91
2021/09/24 04:29:40;;;;;;;;;;;;;;;12.67;63.30;99808.42;1397333;88;20242;-91
2021/09/24 04:32:07;;;;;;;;;;;;;;;12.68;63.46;99808.23;1397370;88;20287;-91
2021/09/24 04:34:34;;;;;;;;;;;;;;;12.68;63.49;99806.08;1397281;88;20295;-93
2021/09/24 04:37:01;;;;;;;;;;;;;;;12.68;63.50;99807.41;1397306;88;20785;-89
2021/09/24 04:39:29;;;;;;;;;;;;;;;12.65;63.40;99838.61;1397375;87;20250;-92
2021/09/24 04:41:56;;;;;;;;;;;;;;;12.69;63.58;99834.27;1397760;88;20859;-90
2021/09/24 04:44:23;;;;;;;;;;;;;;;12.64;63.77;99829.50;1397851;87;20370;-91
2021/09/24 04:46:49;;;;;;;;;;;;;;;12.65;63.67;99835.13;1397954;87;20235;-92
2021/09/24 04:49:16;;;;;;;;;;;;;;;12.61;64.00;99822.71;1398210;88;20315;-93
2021/09/24 04:51:44;;;;;;;;;;;;;;;12.60;64.57;99827.70;1380268;89;20392;-91
2021/09/24 04:54:11;;;;;;;;;;;;;;;12.61;64.86;99823.22;1398220;88;20227;-88
2021/09/24 04:56:38;;;;;;;;;;;;;;;12.57;65.44;99835.17;1397429;88;20860;-89
2021/09/24 04:59:05;;;;;;;;;;;;;;;12.49;66.11;99846.68;1397762;87;20242;-91
2021/09/24 05:01:32;;;;;;;;;;;;;;;12.48;66.37;99857.45;1398122;87;20823;-92
2021/09/24 05:03:59;;;;;;;;;;;;;;;12.38;67.56;99845.73;1397583;87;20235;-89
2021/09/24 05:06:26;;;;;;;;;;;;;;;12.31;67.22;99850.07;1397891;88;20844;-92
2021/09/24 05:08:53;;;;;;;;;;;;;;;12.29;67.10;99856.07;1386103;88;20333;-93
2021/09/24 05:11:20;;;;;;;;;;;;;;;12.28;67.08;99861.03;1384392;89;20824;-91
2021/09/24 05:13:47;;;;;;;;;;;;;;;12.28;67.49;99847.77;1381880;89;20277;-91
2021/09/24 05:16:17;;;;;;;;;;;;;;;12.30;66.94;99849.75;1383684;89;20320;-91
2021/09/24 05:18:45;;;;;;;;;;;;;;;12.30;66.67;99848.42;1370198;91;20294;-92
2021/09/24 05:21:12;;;;;;;;;;;;;;;12.26;66.79;99849.78;1385513;89;20779;-91
2021/09/24 05:23:39;;;;;;;;;;;;;;;12.25;66.80;99851.59;1385278;89;20325;-90
2021/09/24 05:26:06;;;;;;;;;;;;;;;12.24;66.85;99846.47;1384979;89;20280;-93
2021/09/24 05:28:33;;;;;;;;;;;;;;;12.22;66.94;99839.99;1384776;89;20779;-92
2021/09/24 05:31:00;;;;;;;;;;;;;;;12.26;66.56;99835.19;1384625;88;20281;-91
2021/09/24 05:33:27;;;;;;;;;;;;;;;12.24;66.61;99843.31;1364319;90;20340;-92
2021/09/24 05:35:54;;;;;;;;;;;;;;;12.26;66.63;99853.77;1384936;89;20949;-91
2021/09/24 05:38:21;;;;;;;;;;;;;;;12.24;66.92;99847.80;1384681;89;20406;-91
2021/09/24 05:40:48;;;;;;;;;;;;;;;12.23;66.95;99848.30;1386205;88;20779;-94
2021/09/24 05:43:15;;;;;;;;;;;;;;;12.23;66.88;99840.81;1388726;89;20281;-96
2021/09/24 05:45:42;;;;;;;;;;;;;;;12.22;67.11;99837.34;1388328;89;20310;-93
2021/09/24 05:48:09;;;;;;;;;;;;;;;12.23;67.05;99840.81;1388564;89;20266;-94
2021/09/24 05:50:36;;;;;;;;;;;;;;;12.22;67.34;99838.66;1386316;89;20319;-93
2021/09/24 05:53:03;;;;;;;;;;;;;;;12.23;67.33;99841.67;1386297;89;20340;-90
2021/09/24 05:55:30;;;;;;;;;;;;;;;12.21;67.43;99843.66;1388221;89;20231;-96
2021/09/24 05:57:57;;;;;;;;;;;;;;;12.21;67.46;99834.88;1389071;89;20281;-92
2021/09/24 06:02:57;;;;;;;;;;;;;;;12.17;67.65;99839.20;1415648;86;20180;-96
2021/09/24 06:05:31;;;;;;;;;;;;;;;12.15;68.01;99842.52;1398548;86;21892;-96
2021/09/24 06:07:58;;;;;;;;;;;;;;;12.17;67.80;99841.03;1357054;88;20297;-96
2021/09/24 06:10:25;;;;;;;;;;;;;;;12.11;68.21;99841.22;1361954;89;20296;-93
2021/09/24 06:12:52;;;;;;;;;;;;;;;12.16;68.07;99848.64;1389995;89;20310;-96
2021/09/24 06:15:27;;;;;;;;;;;;;;;12.20;68.11;99842.02;1402268;87;20260;-94
2021/09/24 06:20:38;;;;;;;;;;;;;;;12.33;67.64;99851.55;1414715;87;20257;-89
2021/09/24 06:23:05;;;;;;;;;;;;;;;12.41;67.27;99854.68;1388393;88;20242;-89
2021/09/24 06:25:32;;;;;;;;;;;;;;;12.46;67.32;99852.34;1408578;87;20882;-88
2021/09/24 06:27:59;;;;;;;;;;;;;;;12.56;68.36;99842.31;1408710;87;20226;-90
2021/09/24 06:30:26;;;;;;;;;;;;;;;12.63;67.24;99835.31;1409401;87;20796;-90
2021/09/24 06:32:54;;;;;;;;;;;;;;;12.73;68.09;99840.39;1409181;87;20308;-85
2021/09/24 06:35:21;;;;;;;;;;;;;;;12.76;66.52;99837.89;1408998;87;20279;-84
2021/09/24 06:37:48;;;;;;;;;;;;;;;12.73;66.48;99824.97;1408823;87;20242;-84
2021/09/24 06:40:15;;;;;;;;;;;;;;;12.79;66.47;99831.72;1388878;89;20347;-84
2021/09/24 06:42:42;;;;;;;;;;;;;;;12.82;66.24;99835.85;1388384;88;20242;-84
2021/09/24 06:45:11;;;;;;;;;;;;;;;12.85;66.11;99831.01;1408757;87;20227;-84
2021/09/24 06:47:39;;;;;;;;;;;;;;;12.89;66.09;99818.22;1409155;87;20287;-84
2021/09/24 06:50:06;;;;;;;;;;;;;;;12.95;66.09;99825.48;1408576;87;20323;-84
2021/09/24 06:52:33;;;;;;;;;;;;;;;12.99;65.98;99823.28;1408614;87;20248;-86
2021/09/24 06:55:00;;;;;;;;;;;;;;;12.90;66.05;99819.86;1408642;87;20235;-85
2021/09/24 06:57:27;;;;;;;;;;;;;;;12.97;66.05;99828.77;1408525;87;20228;-85
2021/09/24 06:59:54;;;;;;;;;;;;;;;13.00;66.24;99839.03;1408867;87;20249;-85
2021/09/24 07:02:21;;;;;;;;;;;;;;;13.06;65.96;99835.69;1388029;89;20256;-83
2021/09/24 07:04:49;;;;;;;;;;;;;;;13.12;65.84;99838.61;1409005;87;20242;-83
2021/09/24 07:07:16;;;;;;;;;;;;;;;13.17;65.23;99846.88;1409229;87;20242;-83
2021/09/24 07:09:42;;;;;;;;;;;;;;;13.27;65.22;99838.20;1408729;87;20242;-83
2021/09/24 07:12:09;;;;;;;;;;;;;;;13.36;65.09;99840.29;1408740;87;20361;-83
2021/09/24 07:14:37;;;;;;;;;;;;;;;13.39;64.97;99838.09;1409223;87;20733;-83
2021/09/24 07:17:05;;;;;;;;;;;;;;;13.48;64.97;99814.41;1408564;87;20242;-83
2021/09/24 07:19:32;;;;;;;;;;;;;;;13.55;64.57;99818.48;1407609;87;20219;-82
2021/09/24 07:22:00;;;;;;;;;;;;;;;13.58;64.47;99828.78;1404402;88;20228;-82
2021/09/24 07:24:27;;;;;;;;;;;;;;;13.67;64.49;99834.34;1404418;88;20362;-83
2021/09/24 07:26:54;;;;;;;;;;;;;;;13.79;64.60;99833.89;1404682;88;20265;-84
2021/09/24 07:29:21;;;;;;;;;;;;;;;13.82;64.15;99823.70;1404827;88;20749;-83
2021/09/24 07:31:47;;;;;;;;;;;;;;;13.89;63.98;99833.91;1404436;88;20288;-83
2021/09/24 07:34:14;;;;;;;;;;;;;;;13.97;63.79;99827.17;1404429;88;20236;-83
2021/09/24 07:36:41;;;;;;;;;;;;;;;14.10;63.77;99831.04;1404717;88;20757;-84
2021/09/24 07:39:08;;;;;;;;;;;;;;;14.17;63.05;99832.76;1404416;87;20234;-84
2021/09/24 07:41:35;;;;;;;;;;;;;;;14.23;63.22;99825.87;1404432;88;20756;-84
2021/09/24 07:44:04;;;;;;;;;;;;;;;14.35;62.78;99842.19;1404621;88;20258;-85
2021/09/24 07:46:34;;;;;;;;;;;;;;;14.47;62.99;99833.20;1404257;88;20756;-84
2021/09/24 07:49:03;;;;;;;;;;;;;;;14.55;62.70;99839.79;1404664;88;20295;-84
2021/09/24 07:51:31;;;;;;;;;;;;;;;14.70;62.68;99836.56;1404249;88;20242;-85
2021/09/24 07:53:57;;;;;;;;;;;;;;;14.85;62.52;99836.03;1404477;88;20385;-85
2021/09/24 07:56:24;;;;;;;;;;;;;;;14.95;61.73;99836.22;1385558;88;20242;-85
2021/09/24 07:58:51;;;;;;;;;;;;;;;14.99;61.52;99836.98;1404332;88;20242;-85
2021/09/24 08:01:19;;;;;;;;;;;;;;;15.10;61.27;99843.63;1404564;88;20249;-85
2021/09/24 08:03:45;;;;;;;;;;;;;;;15.21;61.88;99847.11;1404431;88;20339;-85
2021/09/24 08:06:14;;;;;;;;;;;;;;;15.40;61.60;99852.82;1385827;89;20228;-84
2021/09/24 08:08:41;;;;;;;;;;;;;;;15.45;60.84;99851.23;1404719;88;20219;-84
2021/09/24 08:11:08;;;;;;;;;;;;;;;15.53;61.11;99844.39;1404983;88;20236;-85
2021/09/24 08:13:35;;;;;;;;;;;;;;;15.55;60.48;99845.03;1404618;88;20234;-84
2021/09/24 08:16:02;;;;;;;;;;;;;;;15.57;60.08;99843.52;1385324;89;20279;-84
2021/09/24 08:18:29;;;;;;;;;;;;;;;15.71;60.63;99847.95;1404665;88;20324;-84
2021/09/24 08:20:59;;;;;;;;;;;;;;;15.79;59.91;99840.29;1402383;86;20243;-84
2021/09/24 08:23:26;;;;;;;;;;;;;;;15.85;59.96;99844.02;1402242;88;20250;-84
2021/09/24 08:25:53;;;;;;;;;;;;;;;15.90;59.56;99838.92;1402342;88;20881;-84
2021/09/24 08:28:20;;;;;;;;;;;;;;;16.00;60.18;99842.08;1402850;88;20242;-84
2021/09/24 08:30:47;;;;;;;;;;;;;;;16.12;59.88;99845.01;1402038;88;20748;-84
2021/09/24 08:33:14;;;;;;;;;;;;;;;16.28;59.71;99833.97;1387496;89;20302;-84
2021/09/24 08:35:43;;;;;;;;;;;;;;;16.42;59.02;99830.84;1402113;88;20227;-84
2021/09/24 08:38:10;;;;;;;;;;;;;;;16.55;58.79;99825.56;1402061;88;20265;-85
2021/09/24 08:40:37;;;;;;;;;;;;;;;16.72;58.69;99822.53;1402095;88;20242;-84
2021/09/24 08:43:04;;;;;;;;;;;;;;;16.87;58.05;99825.87;1402091;88;20342;-84
2021/09/24 08:45:32;;;;;;;;;;;;;;;16.93;57.13;99830.39;1401878;88;20288;-85
2021/09/24 08:48:05;;;;;;;;;;;;;;;17.02;57.04;99822.48;1402079;88;20310;-84
2021/09/24 08:50:35;;;;;;;;;;;;;;;17.03;56.91;99822.81;1402260;88;20294;-85
2021/09/24 08:53:03;;;;;;;;;;;;;;;17.18;57.30;99821.80;1383089;89;20237;-84
2021/09/24 08:55:30;;;;;;;;;;;;;;;17.29;57.07;99830.51;1382923;89;20751;-84
2021/09/24 08:57:57;;;;;;;;;;;;;;;17.41;57.13;99827.55;1382703;89;20253;-84
2021/09/24 09:00:24;;;;;;;;;;;;;;;17.51;57.40;99833.28;1383217;89;20337;-84
2021/09/24 09:03:02;;;;;;;;;;;;;;;17.59;57.60;99837.61;1382804;89;20238;-84
2021/09/24 09:05:39;;;;;;;;;;;;;;;17.70;57.14;99841.52;1382643;89;21090;-85
2021/09/24 09:08:08;;;;;;;;;;;;;;;17.72;56.52;99848.31;1382837;89;21119;-85
2021/09/24 09:10:52;;;;;;;;;;;;;;;17.75;56.97;99846.55;1394691;89;20339;-84
2021/09/24 09:13:20;;;;;;;;;;;;;;;17.76;56.27;99838.00;1388112;89;20273;-85
2021/09/24 09:15:52;;;;;;;;;;;;;;;17.86;57.16;99831.72;1402100;88;20317;-84
2021/09/24 09:18:20;;;;;;;;;;;;;;;17.97;56.39;99832.41;1401817;88;20250;-85
2021/09/24 09:20:49;;;;;;;;;;;;;;;18.02;56.21;99834.47;1404362;88;20249;-84
2021/09/24 09:23:17;;;;;;;;;;;;;;;17.99;55.27;99829.53;1404348;88;20241;-85
2021/09/24 09:25:47;;;;;;;;;;;;;;;17.99;55.65;99833.03;1404662;88;20324;-85
2021/09/24 09:28:17;;;;;;;;;;;;;;;17.99;55.79;99837.05;1385761;89;20235;-84
